Wharton, Ohio
Current Conditions -  °F | °C
As of 12:53 PM on Monday 22 Dec 2014 (Local Time) from KFDY Reporting Station
Scattered Clouds Scattered Clouds  
Wind Chill: 33°   Ceiling: Unl
Heat Index: 39°   Visibility: 7mi
Dew Point: 30°   Wind: 9mph
Humidity: 70%   Direction: 100°E
Pressure: 29.94"   Gusts: NA
Location:  40.86°N, 83.46°W
Report Text: KFDY 221753Z AUTO 10008KT 7SM FEW048 SCT095 04/M01 A2994 RMK AO2 SLP143 T00391011 10039 21044 58031
Loading
Personal Weather Stations






























Interactive Weather Map New forecast layout! Learn more

10-Day Weather Forecast

Advertisements
Track Severe Weather on mobile